sensor_id;sensor_type;location;lat;lon;timestamp;P1;durP1;ratioP1;P2;durP2;ratioP2
58615;SDS011;44385;51.992;4.206;2024-01-11T00:00:12;14.93;;;9.07;;
58615;SDS011;44385;51.992;4.206;2024-01-11T00:02:38;16.45;;;10.00;;
58615;SDS011;44385;51.992;4.206;2024-01-11T00:05:07;15.82;;;8.80;;
58615;SDS011;44385;51.992;4.206;2024-01-11T00:07:34;16.90;;;9.75;;
58615;SDS011;44385;51.992;4.206;2024-01-11T00:10:00;15.40;;;9.68;;
58615;SDS011;44385;51.992;4.206;2024-01-11T00:12:27;16.20;;;10.55;;
58615;SDS011;44385;51.992;4.206;2024-01-11T00:14:53;15.88;;;10.23;;
58615;SDS011;44385;51.992;4.206;2024-01-11T00:17:20;15.10;;;9.77;;
58615;SDS011;44385;51.992;4.206;2024-01-11T00:19:46;16.02;;;9.30;;
58615;SDS011;44385;51.992;4.206;2024-01-11T00:22:15;18.27;;;10.43;;
58615;SDS011;44385;51.992;4.206;2024-01-11T00:24:42;14.57;;;10.13;;
58615;SDS011;44385;51.992;4.206;2024-01-11T00:27:08;14.45;;;9.40;;
58615;SDS011;44385;51.992;4.206;2024-01-11T00:29:35;15.15;;;9.35;;
58615;SDS011;44385;51.992;4.206;2024-01-11T00:32:02;16.20;;;9.95;;
58615;SDS011;44385;51.992;4.206;2024-01-11T00:34:28;19.30;;;9.98;;
58615;SDS011;44385;51.992;4.206;2024-01-11T00:36:55;18.30;;;9.82;;
58615;SDS011;44385;51.992;4.206;2024-01-11T00:39:22;18.13;;;10.32;;
58615;SDS011;44385;51.992;4.206;2024-01-11T00:41:49;20.85;;;11.05;;
58615;SDS011;44385;51.992;4.206;2024-01-11T00:44:16;15.57;;;9.93;;
58615;SDS011;44385;51.992;4.206;2024-01-11T00:46:42;24.63;;;10.50;;
58615;SDS011;44385;51.992;4.206;2024-01-11T00:49:09;15.15;;;9.93;;
58615;SDS011;44385;51.992;4.206;2024-01-11T00:51:35;17.30;;;9.90;;
58615;SDS011;44385;51.992;4.206;2024-01-11T00:54:02;17.58;;;10.65;;
58615;SDS011;44385;51.992;4.206;2024-01-11T00:56:29;18.95;;;10.88;;
58615;SDS011;44385;51.992;4.206;2024-01-11T00:58:55;16.48;;;10.13;;
58615;SDS011;44385;51.992;4.206;2024-01-11T01:01:22;17.73;;;10.70;;
58615;SDS011;44385;51.992;4.206;2024-01-11T01:03:49;15.75;;;9.80;;
58615;SDS011;44385;51.992;4.206;2024-01-11T01:06:16;16.33;;;10.35;;
58615;SDS011;44385;51.992;4.206;2024-01-11T01:08:42;19.52;;;10.93;;
58615;SDS011;44385;51.992;4.206;2024-01-11T01:11:09;17.13;;;10.48;;
58615;SDS011;44385;51.992;4.206;2024-01-11T01:13:37;18.35;;;11.27;;
58615;SDS011;44385;51.992;4.206;2024-01-11T01:16:06;16.45;;;10.38;;
58615;SDS011;44385;51.992;4.206;2024-01-11T01:18:32;20.48;;;10.93;;
58615;SDS011;44385;51.992;4.206;2024-01-11T01:20:59;19.98;;;12.15;;
58615;SDS011;44385;51.992;4.206;2024-01-11T01:23:25;17.48;;;10.50;;
58615;SDS011;44385;51.992;4.206;2024-01-11T01:25:52;18.83;;;10.88;;
58615;SDS011;44385;51.992;4.206;2024-01-11T01:28:18;19.15;;;11.10;;
58615;SDS011;44385;51.992;4.206;2024-01-11T01:30:46;19.23;;;11.15;;
58615;SDS011;44385;51.992;4.206;2024-01-11T01:33:15;20.52;;;11.60;;
58615;SDS011;44385;51.992;4.206;2024-01-11T01:35:41;21.85;;;11.27;;
58615;SDS011;44385;51.992;4.206;2024-01-11T01:38:08;17.65;;;10.85;;
58615;SDS011;44385;51.992;4.206;2024-01-11T01:40:34;18.90;;;10.85;;
58615;SDS011;44385;51.992;4.206;2024-01-11T01:43:01;19.20;;;11.38;;
58615;SDS011;44385;51.992;4.206;2024-01-11T01:45:27;19.02;;;10.52;;
58615;SDS011;44385;51.992;4.206;2024-01-11T01:47:55;19.63;;;10.95;;
58615;SDS011;44385;51.992;4.206;2024-01-11T01:50:22;17.55;;;10.88;;
58615;SDS011;44385;51.992;4.206;2024-01-11T01:52:51;21.88;;;11.85;;
58615;SDS011;44385;51.992;4.206;2024-01-11T01:55:18;16.73;;;10.73;;
58615;SDS011;44385;51.992;4.206;2024-01-11T01:57:45;19.73;;;12.07;;
58615;SDS011;44385;51.992;4.206;2024-01-11T02:00:12;20.40;;;12.57;;
58615;SDS011;44385;51.992;4.206;2024-01-11T02:02:39;21.85;;;12.13;;
58615;SDS011;44385;51.992;4.206;2024-01-11T02:05:07;19.58;;;11.73;;
58615;SDS011;44385;51.992;4.206;2024-01-11T02:07:34;21.38;;;12.38;;
58615;SDS011;44385;51.992;4.206;2024-01-11T02:10:01;18.08;;;11.68;;
58615;SDS011;44385;51.992;4.206;2024-01-11T02:12:28;17.08;;;11.38;;
58615;SDS011;44385;51.992;4.206;2024-01-11T02:14:55;20.77;;;12.32;;
58615;SDS011;44385;51.992;4.206;2024-01-11T02:17:22;22.10;;;12.38;;
58615;SDS011;44385;51.992;4.206;2024-01-11T02:19:49;22.48;;;12.82;;
58615;SDS011;44385;51.992;4.206;2024-01-11T02:22:19;19.05;;;12.38;;
58615;SDS011;44385;51.992;4.206;2024-01-11T02:24:50;20.52;;;12.73;;
58615;SDS011;44385;51.992;4.206;2024-01-11T02:27:18;20.17;;;11.50;;
58615;SDS011;44385;51.992;4.206;2024-01-11T02:29:45;21.55;;;11.88;;
58615;SDS011;44385;51.992;4.206;2024-01-11T02:32:11;22.25;;;11.93;;
58615;SDS011;44385;51.992;4.206;2024-01-11T02:34:38;20.98;;;11.68;;
58615;SDS011;44385;51.992;4.206;2024-01-11T02:37:04;21.98;;;12.85;;
58615;SDS011;44385;51.992;4.206;2024-01-11T02:39:31;20.55;;;11.93;;
58615;SDS011;44385;51.992;4.206;2024-01-11T02:41:59;21.98;;;12.10;;
58615;SDS011;44385;51.992;4.206;2024-01-11T02:44:26;21.25;;;13.23;;
58615;SDS011;44385;51.992;4.206;2024-01-11T02:46:52;18.17;;;12.07;;
58615;SDS011;44385;51.992;4.206;2024-01-11T02:49:19;19.27;;;11.90;;
58615;SDS011;44385;51.992;4.206;2024-01-11T02:51:45;23.30;;;13.15;;
58615;SDS011;44385;51.992;4.206;2024-01-11T02:54:12;19.88;;;11.90;;
58615;SDS011;44385;51.992;4.206;2024-01-11T02:56:38;22.35;;;12.18;;
58615;SDS011;44385;51.992;4.206;2024-01-11T02:59:06;21.20;;;12.10;;
58615;SDS011;44385;51.992;4.206;2024-01-11T03:01:32;22.05;;;12.88;;
58615;SDS011;44385;51.992;4.206;2024-01-11T03:03:59;23.58;;;13.32;;
58615;SDS011;44385;51.992;4.206;2024-01-11T03:06:25;21.70;;;13.20;;
58615;SDS011;44385;51.992;4.206;2024-01-11T03:08:52;22.58;;;13.35;;
58615;SDS011;44385;51.992;4.206;2024-01-11T03:11:18;20.52;;;12.77;;
58615;SDS011;44385;51.992;4.206;2024-01-11T03:13:45;22.15;;;13.10;;
58615;SDS011;44385;51.992;4.206;2024-01-11T03:16:13;23.90;;;13.15;;
58615;SDS011;44385;51.992;4.206;2024-01-11T03:18:40;22.20;;;13.40;;
58615;SDS011;44385;51.992;4.206;2024-01-11T03:21:06;21.40;;;12.60;;
58615;SDS011;44385;51.992;4.206;2024-01-11T03:23:32;24.60;;;13.82;;
58615;SDS011;44385;51.992;4.206;2024-01-11T03:25:59;24.15;;;13.15;;
58615;SDS011;44385;51.992;4.206;2024-01-11T03:28:26;23.80;;;12.93;;
58615;SDS011;44385;51.992;4.206;2024-01-11T03:30:52;25.95;;;13.85;;
58615;SDS011;44385;51.992;4.206;2024-01-11T03:33:20;23.50;;;13.88;;
58615;SDS011;44385;51.992;4.206;2024-01-11T03:35:46;22.02;;;13.30;;
58615;SDS011;44385;51.992;4.206;2024-01-11T03:38:15;28.17;;;14.18;;
58615;SDS011;44385;51.992;4.206;2024-01-11T03:40:42;22.95;;;14.57;;
58615;SDS011;44385;51.992;4.206;2024-01-11T03:43:09;24.75;;;14.98;;
58615;SDS011;44385;51.992;4.206;2024-01-11T03:45:35;23.65;;;13.63;;
58615;SDS011;44385;51.992;4.206;2024-01-11T03:48:02;23.23;;;14.25;;
58615;SDS011;44385;51.992;4.206;2024-01-11T03:50:29;24.48;;;13.68;;
58615;SDS011;44385;51.992;4.206;2024-01-11T03:52:57;25.00;;;14.48;;
58615;SDS011;44385;51.992;4.206;2024-01-11T03:55:23;24.25;;;14.75;;
58615;SDS011;44385;51.992;4.206;2024-01-11T03:57:50;29.42;;;14.40;;
58615;SDS011;44385;51.992;4.206;2024-01-11T04:00:17;26.13;;;15.25;;
58615;SDS011;44385;51.992;4.206;2024-01-11T04:02:44;22.92;;;13.88;;
58615;SDS011;44385;51.992;4.206;2024-01-11T04:05:11;25.25;;;15.45;;
58615;SDS011;44385;51.992;4.206;2024-01-11T04:07:39;22.55;;;14.60;;
58615;SDS011;44385;51.992;4.206;2024-01-11T04:10:05;25.50;;;15.02;;
58615;SDS011;44385;51.992;4.206;2024-01-11T04:12:33;21.88;;;13.88;;
58615;SDS011;44385;51.992;4.206;2024-01-11T04:15:00;26.45;;;14.93;;
58615;SDS011;44385;51.992;4.206;2024-01-11T04:17:26;25.40;;;15.13;;
58615;SDS011;44385;51.992;4.206;2024-01-11T04:19:53;29.30;;;15.68;;
58615;SDS011;44385;51.992;4.206;2024-01-11T04:22:19;27.30;;;14.70;;
58615;SDS011;44385;51.992;4.206;2024-01-11T04:24:50;27.85;;;15.70;;
58615;SDS011;44385;51.992;4.206;2024-01-11T04:27:16;25.98;;;15.50;;
58615;SDS011;44385;51.992;4.206;2024-01-11T04:29:43;24.35;;;15.38;;
58615;SDS011;44385;51.992;4.206;2024-01-11T04:32:09;25.77;;;14.35;;
58615;SDS011;44385;51.992;4.206;2024-01-11T04:34:36;26.35;;;15.75;;
58615;SDS011;44385;51.992;4.206;2024-01-11T04:37:02;27.50;;;15.35;;
58615;SDS011;44385;51.992;4.206;2024-01-11T04:39:29;23.58;;;15.30;;
58615;SDS011;44385;51.992;4.206;2024-01-11T04:41:57;29.38;;;16.88;;
58615;SDS011;44385;51.992;4.206;2024-01-11T04:44:23;26.67;;;15.63;;
58615;SDS011;44385;51.992;4.206;2024-01-11T04:46:50;25.50;;;15.43;;
58615;SDS011;44385;51.992;4.206;2024-01-11T04:49:17;24.70;;;15.68;;
58615;SDS011;44385;51.992;4.206;2024-01-11T04:51:44;28.08;;;15.82;;
58615;SDS011;44385;51.992;4.206;2024-01-11T04:54:10;27.13;;;15.68;;
58615;SDS011;44385;51.992;4.206;2024-01-11T04:56:37;27.80;;;16.35;;
58615;SDS011;44385;51.992;4.206;2024-01-11T04:59:04;25.95;;;15.35;;
58615;SDS011;44385;51.992;4.206;2024-01-11T05:01:31;27.60;;;16.63;;
58615;SDS011;44385;51.992;4.206;2024-01-11T05:03:57;25.60;;;16.88;;
58615;SDS011;44385;51.992;4.206;2024-01-11T05:06:24;26.83;;;16.35;;
58615;SDS011;44385;51.992;4.206;2024-01-11T05:08:51;29.25;;;17.33;;
58615;SDS011;44385;51.992;4.206;2024-01-11T05:11:17;31.58;;;18.17;;
58615;SDS011;44385;51.992;4.206;2024-01-11T05:13:44;31.20;;;17.30;;
58615;SDS011;44385;51.992;4.206;2024-01-11T05:16:21;29.98;;;18.08;;
58615;SDS011;44385;51.992;4.206;2024-01-11T05:18:48;28.10;;;16.67;;
58615;SDS011;44385;51.992;4.206;2024-01-11T05:21:15;28.23;;;17.55;;
58615;SDS011;44385;51.992;4.206;2024-01-11T05:23:42;30.80;;;18.95;;
58615;SDS011;44385;51.992;4.206;2024-01-11T05:26:08;33.20;;;18.70;;
58615;SDS011;44385;51.992;4.206;2024-01-11T05:28:35;33.03;;;18.42;;
58615;SDS011;44385;51.992;4.206;2024-01-11T05:31:01;33.28;;;18.05;;
58615;SDS011;44385;51.992;4.206;2024-01-11T05:33:29;29.25;;;17.63;;
58615;SDS011;44385;51.992;4.206;2024-01-11T05:35:56;34.25;;;18.23;;
58615;SDS011;44385;51.992;4.206;2024-01-11T05:38:23;29.45;;;17.73;;
58615;SDS011;44385;51.992;4.206;2024-01-11T05:40:49;27.30;;;17.90;;
58615;SDS011;44385;51.992;4.206;2024-01-11T05:43:16;30.63;;;18.15;;
58615;SDS011;44385;51.992;4.206;2024-01-11T05:45:43;30.13;;;17.95;;
58615;SDS011;44385;51.992;4.206;2024-01-11T05:48:09;36.05;;;19.15;;
58615;SDS011;44385;51.992;4.206;2024-01-11T05:50:37;28.85;;;17.70;;
58615;SDS011;44385;51.992;4.206;2024-01-11T05:53:04;32.97;;;19.90;;
58615;SDS011;44385;51.992;4.206;2024-01-11T05:55:31;33.72;;;18.75;;
58615;SDS011;44385;51.992;4.206;2024-01-11T05:57:57;29.73;;;18.27;;
58615;SDS011;44385;51.992;4.206;2024-01-11T06:00:24;34.67;;;20.30;;
58615;SDS011;44385;51.992;4.206;2024-01-11T06:02:50;32.22;;;19.00;;
58615;SDS011;44385;51.992;4.206;2024-01-11T06:05:17;35.83;;;20.92;;
58615;SDS011;44385;51.992;4.206;2024-01-11T06:07:45;34.90;;;19.17;;
58615;SDS011;44385;51.992;4.206;2024-01-11T06:10:13;31.40;;;19.75;;
58615;SDS011;44385;51.992;4.206;2024-01-11T06:12:39;32.95;;;20.67;;
58615;SDS011;44385;51.992;4.206;2024-01-11T06:15:06;36.33;;;21.48;;
58615;SDS011;44385;51.992;4.206;2024-01-11T06:17:32;37.00;;;20.95;;
58615;SDS011;44385;51.992;4.206;2024-01-11T06:19:59;36.97;;;21.50;;
58615;SDS011;44385;51.992;4.206;2024-01-11T06:22:26;33.72;;;19.35;;
58615;SDS011;44385;51.992;4.206;2024-01-11T06:24:54;36.65;;;21.55;;
58615;SDS011;44385;51.992;4.206;2024-01-11T06:27:20;34.67;;;21.95;;
58615;SDS011;44385;51.992;4.206;2024-01-11T06:29:50;38.72;;;21.58;;
58615;SDS011;44385;51.992;4.206;2024-01-11T06:34:46;39.13;;;21.67;;
58615;SDS011;44385;51.992;4.206;2024-01-11T06:37:14;37.70;;;22.65;;
58615;SDS011;44385;51.992;4.206;2024-01-11T06:39:40;34.63;;;21.13;;
58615;SDS011;44385;51.992;4.206;2024-01-11T06:42:08;40.17;;;24.27;;
58615;SDS011;44385;51.992;4.206;2024-01-11T06:44:34;40.35;;;23.08;;
58615;SDS011;44385;51.992;4.206;2024-01-11T06:47:01;36.30;;;21.95;;
58615;SDS011;44385;51.992;4.206;2024-01-11T06:49:29;38.33;;;22.27;;
58615;SDS011;44385;51.992;4.206;2024-01-11T06:51:56;41.38;;;23.50;;
58615;SDS011;44385;51.992;4.206;2024-01-11T06:54:22;40.22;;;22.95;;
58615;SDS011;44385;51.992;4.206;2024-01-11T06:56:49;39.92;;;22.65;;
58615;SDS011;44385;51.992;4.206;2024-01-11T06:59:17;40.08;;;24.10;;
58615;SDS011;44385;51.992;4.206;2024-01-11T07:01:44;43.08;;;26.00;;
58615;SDS011;44385;51.992;4.206;2024-01-11T07:04:10;40.40;;;24.75;;
58615;SDS011;44385;51.992;4.206;2024-01-11T07:06:37;43.90;;;26.58;;
58615;SDS011;44385;51.992;4.206;2024-01-11T07:09:04;50.85;;;27.48;;
58615;SDS011;44385;51.992;4.206;2024-01-11T07:11:30;46.50;;;27.23;;
58615;SDS011;44385;51.992;4.206;2024-01-11T07:13:57;48.78;;;28.73;;
58615;SDS011;44385;51.992;4.206;2024-01-11T07:16:25;48.53;;;28.27;;
58615;SDS011;44385;51.992;4.206;2024-01-11T07:18:51;54.05;;;30.92;;
58615;SDS011;44385;51.992;4.206;2024-01-11T07:21:21;56.28;;;29.80;;
58615;SDS011;44385;51.992;4.206;2024-01-11T07:23:54;51.50;;;28.80;;
58615;SDS011;44385;51.992;4.206;2024-01-11T07:26:21;51.97;;;29.75;;
58615;SDS011;44385;51.992;4.206;2024-01-11T07:28:49;54.15;;;30.20;;
58615;SDS011;44385;51.992;4.206;2024-01-11T07:31:16;51.17;;;28.75;;
58615;SDS011;44385;51.992;4.206;2024-01-11T07:33:46;56.97;;;32.42;;
58615;SDS011;44385;51.992;4.206;2024-01-11T07:36:15;54.33;;;29.60;;
58615;SDS011;44385;51.992;4.206;2024-01-11T07:38:42;56.05;;;31.35;;
58615;SDS011;44385;51.992;4.206;2024-01-11T07:41:09;54.15;;;31.30;;
58615;SDS011;44385;51.992;4.206;2024-01-11T07:43:35;51.33;;;31.27;;
58615;SDS011;44385;51.992;4.206;2024-01-11T07:46:03;51.40;;;30.05;;
58615;SDS011;44385;51.992;4.206;2024-01-11T07:48:30;57.67;;;31.20;;
58615;SDS011;44385;51.992;4.206;2024-01-11T07:50:58;57.63;;;32.50;;
58615;SDS011;44385;51.992;4.206;2024-01-11T07:53:25;53.97;;;29.15;;
58615;SDS011;44385;51.992;4.206;2024-01-11T07:55:52;54.85;;;30.10;;
58615;SDS011;44385;51.992;4.206;2024-01-11T07:58:18;56.08;;;30.42;;
58615;SDS011;44385;51.992;4.206;2024-01-11T08:00:46;54.85;;;31.00;;
58615;SDS011;44385;51.992;4.206;2024-01-11T08:03:14;56.40;;;29.92;;
58615;SDS011;44385;51.992;4.206;2024-01-11T08:05:40;51.42;;;30.35;;
58615;SDS011;44385;51.992;4.206;2024-01-11T08:08:09;57.67;;;31.45;;
58615;SDS011;44385;51.992;4.206;2024-01-11T08:10:36;56.67;;;32.53;;
58615;SDS011;44385;51.992;4.206;2024-01-11T08:13:02;49.80;;;30.80;;
58615;SDS011;44385;51.992;4.206;2024-01-11T08:15:29;55.92;;;31.00;;
58615;SDS011;44385;51.992;4.206;2024-01-11T08:17:55;55.30;;;31.58;;
58615;SDS011;44385;51.992;4.206;2024-01-11T08:20:22;53.22;;;31.30;;
58615;SDS011;44385;51.992;4.206;2024-01-11T08:22:49;53.15;;;29.08;;
58615;SDS011;44385;51.992;4.206;2024-01-11T08:25:17;61.13;;;31.95;;
58615;SDS011;44385;51.992;4.206;2024-01-11T08:27:44;59.17;;;32.15;;
58615;SDS011;44385;51.992;4.206;2024-01-11T08:30:11;56.38;;;32.13;;
58615;SDS011;44385;51.992;4.206;2024-01-11T08:32:38;59.92;;;31.05;;
58615;SDS011;44385;51.992;4.206;2024-01-11T08:35:07;55.47;;;31.77;;
58615;SDS011;44385;51.992;4.206;2024-01-11T08:37:35;59.17;;;31.40;;
58615;SDS011;44385;51.992;4.206;2024-01-11T08:40:01;63.63;;;34.78;;
58615;SDS011;44385;51.992;4.206;2024-01-11T08:42:31;57.92;;;31.58;;
58615;SDS011;44385;51.992;4.206;2024-01-11T08:44:57;63.03;;;32.95;;
58615;SDS011;44385;51.992;4.206;2024-01-11T08:47:25;56.45;;;33.72;;
58615;SDS011;44385;51.992;4.206;2024-01-11T08:49:51;56.88;;;32.83;;
58615;SDS011;44385;51.992;4.206;2024-01-11T08:52:18;57.97;;;32.80;;
58615;SDS011;44385;51.992;4.206;2024-01-11T08:54:45;57.88;;;31.58;;
58615;SDS011;44385;51.992;4.206;2024-01-11T08:57:11;54.72;;;32.22;;
58615;SDS011;44385;51.992;4.206;2024-01-11T08:59:39;56.92;;;33.20;;
58615;SDS011;44385;51.992;4.206;2024-01-11T09:02:06;60.92;;;32.28;;
58615;SDS011;44385;51.992;4.206;2024-01-11T09:04:33;52.75;;;30.80;;
58615;SDS011;44385;51.992;4.206;2024-01-11T09:06:59;58.92;;;33.15;;
58615;SDS011;44385;51.992;4.206;2024-01-11T09:09:26;58.72;;;32.47;;
58615;SDS011;44385;51.992;4.206;2024-01-11T09:11:53;52.00;;;30.17;;
58615;SDS011;44385;51.992;4.206;2024-01-11T09:14:19;56.63;;;28.60;;
58615;SDS011;44385;51.992;4.206;2024-01-11T09:16:48;50.63;;;27.83;;
58615;SDS011;44385;51.992;4.206;2024-01-11T09:21:42;48.55;;;27.35;;
58615;SDS011;44385;51.992;4.206;2024-01-11T09:24:08;56.88;;;28.13;;
58615;SDS011;44385;51.992;4.206;2024-01-11T09:26:35;45.83;;;26.90;;
58615;SDS011;44385;51.992;4.206;2024-01-11T09:29:02;51.35;;;29.05;;
58615;SDS011;44385;51.992;4.206;2024-01-11T09:31:28;42.33;;;26.42;;
58615;SDS011;44385;51.992;4.206;2024-01-11T09:33:57;46.03;;;25.75;;
58615;SDS011;44385;51.992;4.206;2024-01-11T09:36:23;42.42;;;26.50;;
58615;SDS011;44385;51.992;4.206;2024-01-11T09:38:50;47.28;;;26.38;;
58615;SDS011;44385;51.992;4.206;2024-01-11T09:41:16;37.80;;;23.98;;
58615;SDS011;44385;51.992;4.206;2024-01-11T09:43:43;36.65;;;22.88;;
58615;SDS011;44385;51.992;4.206;2024-01-11T09:46:12;35.67;;;23.30;;
58615;SDS011;44385;51.992;4.206;2024-01-11T09:48:39;32.63;;;23.00;;
58615;SDS011;44385;51.992;4.206;2024-01-11T09:51:08;34.13;;;22.40;;
58615;SDS011;44385;51.992;4.206;2024-01-11T09:53:36;32.90;;;21.35;;
58615;SDS011;44385;51.992;4.206;2024-01-11T09:56:04;33.10;;;20.40;;
58615;SDS011;44385;51.992;4.206;2024-01-11T09:58:33;29.75;;;19.70;;
58615;SDS011;44385;51.992;4.206;2024-01-11T10:01:01;31.45;;;19.52;;
58615;SDS011;44385;51.992;4.206;2024-01-11T10:03:28;34.25;;;20.70;;
58615;SDS011;44385;51.992;4.206;2024-01-11T10:05:56;32.60;;;20.25;;
58615;SDS011;44385;51.992;4.206;2024-01-11T10:08:24;29.55;;;20.00;;
58615;SDS011;44385;51.992;4.206;2024-01-11T10:10:51;28.85;;;19.15;;
58615;SDS011;44385;51.992;4.206;2024-01-11T10:13:18;29.33;;;19.63;;
58615;SDS011;44385;51.992;4.206;2024-01-11T10:15:44;29.80;;;18.17;;
58615;SDS011;44385;51.992;4.206;2024-01-11T10:18:11;25.35;;;16.45;;
58615;SDS011;44385;51.992;4.206;2024-01-11T10:20:37;24.73;;;16.30;;
58615;SDS011;44385;51.992;4.206;2024-01-11T10:23:04;24.60;;;15.48;;
58615;SDS011;44385;51.992;4.206;2024-01-11T10:25:32;27.40;;;17.42;;
58615;SDS011;44385;51.992;4.206;2024-01-11T10:27:59;24.67;;;16.00;;
58615;SDS011;44385;51.992;4.206;2024-01-11T10:30:25;27.15;;;16.77;;
58615;SDS011;44385;51.992;4.206;2024-01-11T10:32:52;25.33;;;16.10;;
58615;SDS011;44385;51.992;4.206;2024-01-11T10:35:18;21.38;;;14.80;;
58615;SDS011;44385;51.992;4.206;2024-01-11T10:37:45;22.23;;;15.27;;
58615;SDS011;44385;51.992;4.206;2024-01-11T10:40:15;25.60;;;15.27;;
58615;SDS011;44385;51.992;4.206;2024-01-11T10:42:49;23.00;;;15.70;;
58615;SDS011;44385;51.992;4.206;2024-01-11T10:45:17;22.92;;;15.02;;
58615;SDS011;44385;51.992;4.206;2024-01-11T10:47:53;25.25;;;15.77;;
58615;SDS011;44385;51.992;4.206;2024-01-11T10:50:20;24.73;;;14.68;;
58615;SDS011;44385;51.992;4.206;2024-01-11T10:53:02;22.05;;;14.82;;
58615;SDS011;44385;51.992;4.206;2024-01-11T10:55:30;26.25;;;14.55;;
58615;SDS011;44385;51.992;4.206;2024-01-11T10:57:59;24.77;;;15.27;;
58615;SDS011;44385;51.992;4.206;2024-01-11T11:00:26;25.20;;;15.45;;
58615;SDS011;44385;51.992;4.206;2024-01-11T11:02:53;24.83;;;15.40;;
58615;SDS011;44385;51.992;4.206;2024-01-11T11:05:21;25.05;;;15.07;;
58615;SDS011;44385;51.992;4.206;2024-01-11T11:07:51;23.38;;;14.43;;
58615;SDS011;44385;51.992;4.206;2024-01-11T11:10:18;20.80;;;14.27;;
58615;SDS011;44385;51.992;4.206;2024-01-11T11:12:45;23.00;;;16.35;;
58615;SDS011;44385;51.992;4.206;2024-01-11T11:15:13;24.98;;;16.00;;
58615;SDS011;44385;51.992;4.206;2024-01-11T11:17:40;24.27;;;15.45;;
58615;SDS011;44385;51.992;4.206;2024-01-11T11:20:07;21.05;;;14.60;;
58615;SDS011;44385;51.992;4.206;2024-01-11T11:22:34;24.75;;;14.98;;
58615;SDS011;44385;51.992;4.206;2024-01-11T11:25:04;23.15;;;15.00;;
58615;SDS011;44385;51.992;4.206;2024-01-11T11:27:33;23.35;;;14.80;;
58615;SDS011;44385;51.992;4.206;2024-01-11T11:29:59;24.65;;;14.55;;
58615;SDS011;44385;51.992;4.206;2024-01-11T11:32:36;20.40;;;13.57;;
58615;SDS011;44385;51.992;4.206;2024-01-11T11:35:04;21.33;;;14.95;;
58615;SDS011;44385;51.992;4.206;2024-01-11T11:37:30;23.58;;;13.40;;
58615;SDS011;44385;51.992;4.206;2024-01-11T11:39:58;20.85;;;13.30;;
58615;SDS011;44385;51.992;4.206;2024-01-11T11:42:24;20.45;;;12.80;;
58615;SDS011;44385;51.992;4.206;2024-01-11T11:44:51;18.92;;;12.90;;
58615;SDS011;44385;51.992;4.206;2024-01-11T11:47:18;20.88;;;13.25;;
58615;SDS011;44385;51.992;4.206;2024-01-11T11:49:59;21.20;;;13.65;;
58615;SDS011;44385;51.992;4.206;2024-01-11T11:52:29;22.10;;;13.48;;
58615;SDS011;44385;51.992;4.206;2024-01-11T11:54:56;18.27;;;13.25;;
58615;SDS011;44385;51.992;4.206;2024-01-11T11:57:23;24.50;;;14.13;;
58615;SDS011;44385;51.992;4.206;2024-01-11T11:59:50;21.98;;;13.73;;
58615;SDS011;44385;51.992;4.206;2024-01-11T12:02:16;21.55;;;13.30;;
58615;SDS011;44385;51.992;4.206;2024-01-11T12:04:46;20.92;;;13.85;;
58615;SDS011;44385;51.992;4.206;2024-01-11T12:07:15;20.60;;;13.38;;
58615;SDS011;44385;51.992;4.206;2024-01-11T12:09:42;18.77;;;12.52;;
58615;SDS011;44385;51.992;4.206;2024-01-11T12:12:08;21.10;;;14.05;;
58615;SDS011;44385;51.992;4.206;2024-01-11T12:14:35;23.67;;;14.90;;
58615;SDS011;44385;51.992;4.206;2024-01-11T12:17:01;21.08;;;13.35;;
58615;SDS011;44385;51.992;4.206;2024-01-11T12:19:28;20.42;;;12.35;;
58615;SDS011;44385;51.992;4.206;2024-01-11T12:21:54;20.38;;;13.50;;
58615;SDS011;44385;51.992;4.206;2024-01-11T12:24:22;20.77;;;13.63;;
58615;SDS011;44385;51.992;4.206;2024-01-11T12:26:50;20.42;;;15.00;;
58615;SDS011;44385;51.992;4.206;2024-01-11T12:29:17;23.70;;;15.13;;
58615;SDS011;44385;51.992;4.206;2024-01-11T12:31:44;21.77;;;15.10;;
58615;SDS011;44385;51.992;4.206;2024-01-11T12:34:11;25.00;;;15.35;;
58615;SDS011;44385;51.992;4.206;2024-01-11T12:36:38;25.48;;;15.20;;
58615;SDS011;44385;51.992;4.206;2024-01-11T12:39:04;22.15;;;14.10;;
58615;SDS011;44385;51.992;4.206;2024-01-11T12:41:33;21.20;;;13.95;;
58615;SDS011;44385;51.992;4.206;2024-01-11T12:43:59;22.42;;;14.70;;
58615;SDS011;44385;51.992;4.206;2024-01-11T12:46:26;24.75;;;15.75;;
58615;SDS011;44385;51.992;4.206;2024-01-11T12:48:52;22.05;;;14.65;;
58615;SDS011;44385;51.992;4.206;2024-01-11T12:51:19;26.02;;;15.77;;
58615;SDS011;44385;51.992;4.206;2024-01-11T12:53:45;23.33;;;14.00;;
58615;SDS011;44385;51.992;4.206;2024-01-11T12:56:14;22.60;;;15.90;;
58615;SDS011;44385;51.992;4.206;2024-01-11T12:58:42;21.60;;;15.35;;
58615;SDS011;44385;51.992;4.206;2024-01-11T13:01:11;24.38;;;13.98;;
58615;SDS011;44385;51.992;4.206;2024-01-11T13:03:39;21.05;;;14.18;;
58615;SDS011;44385;51.992;4.206;2024-01-11T13:06:06;21.13;;;14.43;;
58615;SDS011;44385;51.992;4.206;2024-01-11T13:08:34;26.30;;;14.98;;
58615;SDS011;44385;51.992;4.206;2024-01-11T13:11:01;23.52;;;15.73;;
58615;SDS011;44385;51.992;4.206;2024-01-11T13:13:32;22.08;;;15.15;;
58615;SDS011;44385;51.992;4.206;2024-01-11T13:16:00;19.70;;;14.18;;
58615;SDS011;44385;51.992;4.206;2024-01-11T13:18:27;27.55;;;14.48;;
58615;SDS011;44385;51.992;4.206;2024-01-11T13:20:53;23.38;;;14.52;;
58615;SDS011;44385;51.992;4.206;2024-01-11T13:23:20;22.48;;;14.85;;
58615;SDS011;44385;51.992;4.206;2024-01-11T13:25:47;20.58;;;14.05;;
58615;SDS011;44385;51.992;4.206;2024-01-11T13:28:16;20.88;;;15.20;;
58615;SDS011;44385;51.992;4.206;2024-01-11T13:30:44;23.63;;;14.43;;
58615;SDS011;44385;51.992;4.206;2024-01-11T13:33:12;23.83;;;14.57;;
58615;SDS011;44385;51.992;4.206;2024-01-11T13:35:39;22.92;;;14.93;;
58615;SDS011;44385;51.992;4.206;2024-01-11T13:38:08;25.27;;;14.32;;
58615;SDS011;44385;51.992;4.206;2024-01-11T13:40:34;25.13;;;15.82;;
58615;SDS011;44385;51.992;4.206;2024-01-11T13:43:01;24.80;;;15.63;;
58615;SDS011;44385;51.992;4.206;2024-01-11T13:45:28;23.10;;;14.88;;
58615;SDS011;44385;51.992;4.206;2024-01-11T13:47:54;22.50;;;15.10;;
58615;SDS011;44385;51.992;4.206;2024-01-11T13:50:22;21.17;;;14.80;;
58615;SDS011;44385;51.992;4.206;2024-01-11T13:52:50;22.95;;;15.45;;
58615;SDS011;44385;51.992;4.206;2024-01-11T13:55:16;21.15;;;14.82;;
58615;SDS011;44385;51.992;4.206;2024-01-11T13:57:46;19.95;;;14.43;;
58615;SDS011;44385;51.992;4.206;2024-01-11T14:00:15;23.02;;;14.32;;
58615;SDS011;44385;51.992;4.206;2024-01-11T14:02:44;21.40;;;14.68;;
58615;SDS011;44385;51.992;4.206;2024-01-11T14:05:10;21.50;;;14.25;;
58615;SDS011;44385;51.992;4.206;2024-01-11T14:07:40;21.15;;;14.45;;
58615;SDS011;44385;51.992;4.206;2024-01-11T14:10:07;20.30;;;14.30;;
58615;SDS011;44385;51.992;4.206;2024-01-11T14:12:34;21.83;;;13.52;;
58615;SDS011;44385;51.992;4.206;2024-01-11T14:15:02;23.35;;;14.60;;
58615;SDS011;44385;51.992;4.206;2024-01-11T14:17:27;24.45;;;14.20;;
58615;SDS011;44385;51.992;4.206;2024-01-11T14:19:54;24.33;;;15.07;;
58615;SDS011;44385;51.992;4.206;2024-01-11T14:22:20;22.30;;;14.35;;
58615;SDS011;44385;51.992;4.206;2024-01-11T14:24:50;20.13;;;14.40;;